Delta Ios — SVAK9 — position and weather

sailwx.info

Track history (hours):
 
Tides and Currents Weather Stations Pressure Air Temp Water Temp Dewpoint Dewpoint Depression Visibility Wind Speed Wind Dir Waves Ship Positions

Delta Ios

Last reported at 2016-Jun-27 00:23 UTC. Time now 2016-Jun-27 09:37 UTC.
Position N 32°04' E 031°05'.

Length 276 m; draft 16.6 m.

Type: Ship. MMSI: 240821000.

Date/timePositionNaut miles runAvg speedWind from/ knotsBaromVisibWave heightAir tempDewpointWater temp
2016-Jun-27 00:23N 32°04' E 031°05'1112.8
2016-Jun-26 23:33N 32°00' E 031°17'1312.8
2016-Jun-26 22:33N 31°56' E 031°31'1912.8
2016-Jun-26 21:04N 31°48' E 031°52'712.4
2016-Jun-26 20:33N 31°45' E 031°59'1512.2
2016-Jun-26 19:20N 31°35' E 032°11'1312.1
2016-Jun-26 18:16N 31°27' E 032°23'811.2
2016-Jun-26 17:33N 31°19' E 032°22'10 9.6
2016-Jun-26 16:33N 31°10' E 032°20'9 8.8
2016-Jun-26 15:33N 31°01' E 032°19'78 4.3
2016-Jun-25 21:30N 29°44' E 032°35'  
Track history (hours):
 
Tides and Currents Weather Stations Pressure Air Temp Water Temp Dewpoint Dewpoint Depression Visibility Wind Speed Wind Dir Waves Ship Positions

Delta Ios

Last reported at 2016-Jun-27 00:23 UTC. Time now 2016-Jun-27 09:37 UTC.
Position N 32°04' E 031°05'.

Length 276 m; draft 16.6 m.

Type: Ship. MMSI: 240821000.

Date/timePositionNaut miles runAvg speedWind from/ knotsBaromVisibWave heightAir tempDewpointWater temp
2016-Jun-27 00:23N 32°04' E 031°05'1112.8
2016-Jun-26 23:33N 32°00' E 031°17'1312.8
2016-Jun-26 22:33N 31°56' E 031°31'1912.8
2016-Jun-26 21:04N 31°48' E 031°52'712.4
2016-Jun-26 20:33N 31°45' E 031°59'1512.2
2016-Jun-26 19:20N 31°35' E 032°11'1312.1
2016-Jun-26 18:16N 31°27' E 032°23'811.2
2016-Jun-26 17:33N 31°19' E 032°22'10 9.6
2016-Jun-26 16:33N 31°10' E 032°20'9 8.8
2016-Jun-26 15:33N 31°01' E 032°19'78 4.3
2016-Jun-25 21:30N 29°44' E 032°35'  

Dump ship's entire track history